createdAt,value
2023-02-19T00:00:32.283Z,47.81
2023-02-19T00:01:32.309Z,52.57
2023-02-19T00:02:32.269Z,54.66
2023-02-19T00:03:32.303Z,49.26
2023-02-19T00:04:32.354Z,51.15
2023-02-19T00:05:32.242Z,51.26
2023-02-19T00:06:32.213Z,53.64
2023-02-19T00:07:32.208Z,54.95
2023-02-19T00:08:32.220Z,51.62
2023-02-19T00:09:32.209Z,50.09
2023-02-19T00:10:32.191Z,53.82
2023-02-19T00:11:32.175Z,47.67
2023-02-19T00:12:32.160Z,49.42
2023-02-19T00:13:32.169Z,52.28
2023-02-19T00:14:32.165Z,51.22
2023-02-19T00:15:32.179Z,51.26
2023-02-19T00:16:32.103Z,48.21
2023-02-19T00:17:32.126Z,49.77
2023-02-19T00:18:32.095Z,49.72
2023-02-19T00:19:32.096Z,54.56
2023-02-19T00:20:32.097Z,54.24
2023-02-19T00:21:32.082Z,50.02
2023-02-19T00:22:32.031Z,48.50
2023-02-19T00:23:32.043Z,46.65
2023-02-19T00:24:32.072Z,45.05
2023-02-19T00:25:32.002Z,43.87
2023-02-19T00:26:32.037Z,52.08
2023-02-19T00:27:32.010Z,52.05
2023-02-19T00:28:31.994Z,52.46
2023-02-19T00:29:31.960Z,52.56
2023-02-19T00:30:32.025Z,53.97
2023-02-19T00:31:33.223Z,49.55
2023-02-19T00:32:32.927Z,48.01
2023-02-19T00:33:31.972Z,46.69
2023-02-19T00:34:31.911Z,47.23
2023-02-19T00:35:31.917Z,59.09
2023-02-19T00:36:31.933Z,50.36
2023-02-19T00:37:31.904Z,47.10
2023-02-19T00:38:31.867Z,52.50
2023-02-19T00:39:31.886Z,52.31
2023-02-19T00:40:31.869Z,49.67
2023-02-19T00:41:31.842Z,50.32
2023-02-19T00:42:31.816Z,46.85
2023-02-19T00:43:31.823Z,52.43
2023-02-19T00:44:31.848Z,55.19
2023-02-19T00:45:31.801Z,54.20
2023-02-19T00:46:31.840Z,48.64
2023-02-19T00:47:31.794Z,45.48
2023-02-19T00:48:31.818Z,52.19
2023-02-19T00:49:31.766Z,47.25
2023-02-19T00:50:31.771Z,49.68
2023-02-19T00:51:31.747Z,52.39
2023-02-19T00:52:31.710Z,44.42
2023-02-19T00:53:31.717Z,51.51
2023-02-19T00:54:31.740Z,44.65
2023-02-19T00:55:31.685Z,49.44
2023-02-19T00:56:31.660Z,46.83
2023-02-19T00:57:31.703Z,52.58
2023-02-19T00:58:31.654Z,53.24
2023-02-19T00:59:31.666Z,53.37
2023-02-19T01:00:31.654Z,51.04
2023-02-19T01:01:31.700Z,45.51
2023-02-19T01:02:31.606Z,47.32
2023-02-19T01:03:31.595Z,51.09
2023-02-19T01:04:31.656Z,49.31
2023-02-19T01:05:31.572Z,45.54
2023-02-19T01:06:31.584Z,44.81
2023-02-19T01:07:32.563Z,46.16
2023-02-19T01:08:31.568Z,48.45
2023-02-19T01:09:31.547Z,46.81
2023-02-19T01:10:31.543Z,44.16
2023-02-19T01:11:31.529Z,46.96
2023-02-19T01:12:31.483Z,45.54
2023-02-19T01:13:31.494Z,46.67
2023-02-19T01:14:31.568Z,49.64
2023-02-19T01:15:31.479Z,50.51
2023-02-19T01:16:31.459Z,50.42
2023-02-19T01:17:31.460Z,43.62
2023-02-19T01:18:31.457Z,46.87
2023-02-19T01:19:31.447Z,44.82
2023-02-19T01:20:31.409Z,48.31
2023-02-19T01:21:31.430Z,49.98
2023-02-19T01:22:31.375Z,52.88
2023-02-19T01:23:31.387Z,51.14
2023-02-19T01:24:31.405Z,50.48
2023-02-19T01:25:31.360Z,46.19
2023-02-19T01:26:31.333Z,47.22
2023-02-19T01:27:31.343Z,49.96
2023-02-19T01:28:31.344Z,50.37
2023-02-19T01:29:31.329Z,47.96
2023-02-19T01:30:31.356Z,53.53
2023-02-19T01:31:31.433Z,47.99
2023-02-19T01:32:31.290Z,45.12
2023-02-19T01:33:31.276Z,48.92
2023-02-19T01:34:31.279Z,47.09
2023-02-19T01:35:31.284Z,47.43
2023-02-19T01:36:31.258Z,49.49
2023-02-19T01:37:31.247Z,47.78
2023-02-19T01:38:31.223Z,47.57
2023-02-19T01:39:31.207Z,49.64
2023-02-19T01:40:31.219Z,53.40
2023-02-19T01:41:31.230Z,56.01
2023-02-19T01:42:31.173Z,52.36
2023-02-19T01:43:31.191Z,49.97
2023-02-19T01:44:31.184Z,49.73
2023-02-19T01:45:31.153Z,51.31
2023-02-19T01:46:31.177Z,51.18
2023-02-19T01:47:31.143Z,49.99
2023-02-19T01:48:31.148Z,48.59
2023-02-19T01:49:31.129Z,51.38
2023-02-19T01:50:31.087Z,54.20
2023-02-19T01:51:31.079Z,51.75
2023-02-19T01:52:31.073Z,48.17
2023-02-19T01:53:32.077Z,47.36
2023-02-19T01:54:31.072Z,46.54
2023-02-19T01:55:31.057Z,52.13
2023-02-19T01:56:31.030Z,48.98
2023-02-19T01:57:31.018Z,48.24
2023-02-19T01:58:31.031Z,51.34
2023-02-19T01:59:31.017Z,48.06
2023-02-19T02:00:30.984Z,47.57
2023-02-19T02:01:31.003Z,48.93
2023-02-19T02:02:30.945Z,49.41
2023-02-19T02:03:30.965Z,53.60
2023-02-19T02:04:30.953Z,48.56
2023-02-19T02:05:31.943Z,48.15
2023-02-19T02:06:30.902Z,47.61
2023-02-19T02:07:30.924Z,49.05
2023-02-19T02:09:02.820Z,48.72
2023-02-19T02:09:30.894Z,48.93
2023-02-19T02:10:30.868Z,48.57
2023-02-19T02:11:30.886Z,47.27
2023-02-19T02:12:30.876Z,51.49
2023-02-19T02:13:30.850Z,48.09
2023-02-19T02:14:31.821Z,48.84
2023-02-19T02:15:31.826Z,53.41
2023-02-19T02:16:30.858Z,47.55
2023-02-19T02:17:30.817Z,50.19
2023-02-19T02:18:30.792Z,45.06
2023-02-19T02:19:30.789Z,42.93
2023-02-19T02:20:30.764Z,44.81
2023-02-19T02:21:30.765Z,53.28
2023-02-19T02:22:30.764Z,48.10
2023-02-19T02:23:30.735Z,48.72
2023-02-19T02:24:30.725Z,48.87
2023-02-19T02:25:30.721Z,46.59
2023-02-19T02:26:30.716Z,50.27
2023-02-19T02:27:30.684Z,48.65
2023-02-19T02:28:30.695Z,47.16
2023-02-19T02:29:30.675Z,50.24
2023-02-19T02:30:30.761Z,45.13
2023-02-19T02:31:30.747Z,50.73
2023-02-19T02:32:30.669Z,44.27
2023-02-19T02:33:30.621Z,46.81
2023-02-19T02:34:30.626Z,47.50
2023-02-19T02:35:30.611Z,45.74
2023-02-19T02:36:30.625Z,42.30
2023-02-19T02:37:30.586Z,44.32
2023-02-19T02:38:30.579Z,49.78
2023-02-19T02:39:30.569Z,50.23
2023-02-19T02:40:30.576Z,49.14
2023-02-19T02:41:30.576Z,47.51
2023-02-19T02:42:30.529Z,51.72
2023-02-19T02:43:30.541Z,42.19
2023-02-19T02:44:30.514Z,42.41
2023-02-19T02:45:30.521Z,44.15
2023-02-19T02:46:30.496Z,51.83
2023-02-19T02:47:30.469Z,52.67
2023-02-19T02:48:30.525Z,53.47
2023-02-19T02:49:30.454Z,45.98
2023-02-19T02:50:30.458Z,46.91
2023-02-19T02:51:30.439Z,51.03
2023-02-19T02:52:30.427Z,51.03
2023-02-19T02:53:30.418Z,46.86
2023-02-19T02:54:30.401Z,43.31
2023-02-19T02:55:30.395Z,47.35
2023-02-19T02:56:30.393Z,45.48
2023-02-19T02:57:30.373Z,46.25
2023-02-19T02:58:30.363Z,49.10
2023-02-19T02:59:30.344Z,44.73
2023-02-19T03:00:30.328Z,51.76
2023-02-19T03:01:30.338Z,50.75
2023-02-19T03:02:30.347Z,48.71
2023-02-19T03:03:30.312Z,42.95
2023-02-19T03:04:30.288Z,49.69
2023-02-19T03:05:30.282Z,42.84
2023-02-19T03:06:30.293Z,42.18
2023-02-19T03:07:30.256Z,49.42
2023-02-19T03:08:30.249Z,43.31
2023-02-19T03:09:30.311Z,45.38
2023-02-19T03:10:30.213Z,47.69
2023-02-19T03:11:30.226Z,44.27
2023-02-19T03:12:30.207Z,42.87
2023-02-19T03:13:30.191Z,45.70
2023-02-19T03:14:30.177Z,47.66
2023-02-19T03:15:30.174Z,43.33
2023-02-19T03:16:30.185Z,43.96
2023-02-19T03:17:30.168Z,45.35
2023-02-19T03:18:30.139Z,49.56
2023-02-19T03:19:30.137Z,50.12
2023-02-19T03:20:30.108Z,47.60
2023-02-19T03:21:30.106Z,47.68
2023-02-19T03:22:30.113Z,45.93
2023-02-19T03:23:30.082Z,46.06
2023-02-19T03:24:30.063Z,48.04
2023-02-19T03:25:30.044Z,52.14
2023-02-19T03:26:30.052Z,49.94
2023-02-19T03:27:30.038Z,47.99
2023-02-19T03:28:30.008Z,51.65
2023-02-19T03:29:30.037Z,42.89
2023-02-19T03:30:30.083Z,43.35
2023-02-19T03:31:30.147Z,48.56
2023-02-19T03:32:29.977Z,48.71
2023-02-19T03:33:29.965Z,48.53
2023-02-19T03:34:29.953Z,43.38
2023-02-19T03:35:29.939Z,45.48
2023-02-19T03:36:29.931Z,51.61
2023-02-19T03:37:29.924Z,46.77
2023-02-19T03:38:29.921Z,46.05
2023-02-19T03:39:29.899Z,54.93
2023-02-19T03:40:29.876Z,52.15
2023-02-19T03:41:29.862Z,53.27
2023-02-19T03:42:29.885Z,46.69
2023-02-19T03:43:29.870Z,51.26
2023-02-19T03:44:29.842Z,51.46
2023-02-19T03:45:30.831Z,52.18
2023-02-19T03:46:29.812Z,48.38
2023-02-19T03:47:29.825Z,44.34
2023-02-19T03:48:29.808Z,44.03
2023-02-19T03:49:29.789Z,43.93
2023-02-19T03:50:29.778Z,48.38
2023-02-19T03:51:29.766Z,48.81
2023-02-19T03:52:29.763Z,44.71
2023-02-19T03:53:29.760Z,49.83
2023-02-19T03:54:29.728Z,51.65
2023-02-19T03:55:29.718Z,51.90
2023-02-19T03:56:29.720Z,51.13
2023-02-19T03:57:29.698Z,55.12
2023-02-19T03:58:29.680Z,51.10
2023-02-19T03:59:29.670Z,47.74
2023-02-19T04:00:29.677Z,42.64
2023-02-19T04:01:29.661Z,46.21
2023-02-19T04:02:29.714Z,49.07
2023-02-19T04:03:29.669Z,50.26
2023-02-19T04:04:29.640Z,51.06
2023-02-19T04:05:30.607Z,51.50
2023-02-19T04:06:29.625Z,51.29
2023-02-19T04:07:29.602Z,48.07
2023-02-19T04:08:29.580Z,47.00
2023-02-19T04:09:29.578Z,47.43
2023-02-19T04:10:29.588Z,45.54
2023-02-19T04:11:29.546Z,46.36
2023-02-19T04:12:29.552Z,56.63
2023-02-19T04:13:29.536Z,55.29
2023-02-19T04:14:29.553Z,53.53
2023-02-19T04:15:29.499Z,47.95
2023-02-19T04:16:29.514Z,49.95
2023-02-19T04:17:29.493Z,53.31
2023-02-19T04:18:29.471Z,51.68
2023-02-19T04:19:29.484Z,51.14
2023-02-19T04:20:29.440Z,48.31
2023-02-19T04:21:29.434Z,49.64
2023-02-19T04:22:29.427Z,54.58
2023-02-19T04:23:29.433Z,47.79
2023-02-19T04:24:29.425Z,53.21
2023-02-19T04:25:29.411Z,55.79
2023-02-19T04:26:29.398Z,61.10
2023-02-19T04:27:29.400Z,65.15
2023-02-19T04:28:29.373Z,64.47
2023-02-19T04:29:29.337Z,61.26
2023-02-19T04:30:29.532Z,64.30
2023-02-19T04:31:29.439Z,62.28
2023-02-19T04:32:29.314Z,55.38
2023-02-19T04:33:29.306Z,55.60
2023-02-19T04:34:29.280Z,52.85
2023-02-19T04:35:29.307Z,53.83
2023-02-19T04:36:29.275Z,50.43
2023-02-19T04:37:29.277Z,53.15
2023-02-19T04:38:29.279Z,50.24
2023-02-19T04:39:29.240Z,61.13
2023-02-19T04:40:29.240Z,65.11
2023-02-19T04:41:29.224Z,55.37
2023-02-19T04:42:29.229Z,54.24
2023-02-19T04:43:29.209Z,53.99
2023-02-19T04:44:29.186Z,53.72
2023-02-19T04:45:29.157Z,52.55
2023-02-19T04:46:29.210Z,50.93
2023-02-19T04:47:29.155Z,58.21
2023-02-19T04:48:29.151Z,54.32
2023-02-19T04:49:29.158Z,54.40
2023-02-19T04:50:29.177Z,51.68
2023-02-19T04:51:29.100Z,48.72
2023-02-19T04:52:31.673Z,52.06
2023-02-19T04:53:29.075Z,53.57
2023-02-19T04:54:29.089Z,51.07
2023-02-19T04:55:29.055Z,51.28
2023-02-19T04:56:29.068Z,51.91
2023-02-19T04:57:29.051Z,51.54
2023-02-19T04:58:29.032Z,48.82
2023-02-19T04:59:29.041Z,51.72
2023-02-19T05:00:28.999Z,51.39
2023-02-19T05:01:29.034Z,48.31
2023-02-19T05:02:28.968Z,53.95
2023-02-19T05:03:29.000Z,49.29
2023-02-19T05:04:28.987Z,47.66
2023-02-19T05:05:28.968Z,50.31
2023-02-19T05:06:28.933Z,52.21
2023-02-19T05:07:28.941Z,54.94
2023-02-19T05:08:28.917Z,54.52
2023-02-19T05:09:28.909Z,49.82
2023-02-19T05:10:28.896Z,52.85
2023-02-19T05:11:28.899Z,48.61
2023-02-19T05:12:28.874Z,50.57
2023-02-19T05:13:28.880Z,53.53
2023-02-19T05:14:28.855Z,50.54
2023-02-19T05:15:28.835Z,53.06
2023-02-19T05:16:28.875Z,54.39
2023-02-19T05:17:28.812Z,55.45
2023-02-19T05:18:28.801Z,48.91
2023-02-19T05:19:28.796Z,49.85
2023-02-19T05:20:28.796Z,50.97
2023-02-19T05:21:28.777Z,49.58
2023-02-19T05:22:28.763Z,57.17
2023-02-19T05:23:28.780Z,51.91
2023-02-19T05:24:28.734Z,53.96
2023-02-19T05:25:28.730Z,54.24
2023-02-19T05:26:28.739Z,46.90
2023-02-19T05:27:28.717Z,50.03
2023-02-19T05:28:28.750Z,54.37
2023-02-19T05:29:28.695Z,47.31
2023-02-19T05:30:28.725Z,50.88
2023-02-19T05:31:28.805Z,53.96
2023-02-19T05:32:28.662Z,55.49
2023-02-19T05:33:28.642Z,55.89
2023-02-19T05:34:28.661Z,57.89
2023-02-19T05:35:28.647Z,54.91
2023-02-19T05:36:28.626Z,50.95
2023-02-19T05:37:28.630Z,52.00
2023-02-19T05:38:28.599Z,55.52
2023-02-19T05:39:28.611Z,54.39
2023-02-19T05:40:28.594Z,55.18
2023-02-19T05:41:28.600Z,53.71
2023-02-19T05:42:28.572Z,56.84
2023-02-19T05:43:28.543Z,55.70
2023-02-19T05:44:28.546Z,52.47
2023-02-19T05:45:28.551Z,57.80
2023-02-19T05:46:28.577Z,52.68
2023-02-19T05:47:28.516Z,52.51
2023-02-19T05:48:28.506Z,52.36
2023-02-19T05:49:28.472Z,50.20
2023-02-19T05:50:28.494Z,54.37
2023-02-19T05:51:28.490Z,57.44
2023-02-19T05:52:28.449Z,50.51
2023-02-19T05:53:28.441Z,56.46
2023-02-19T05:54:28.440Z,57.93
2023-02-19T05:55:28.409Z,58.02
2023-02-19T05:56:28.426Z,52.14
2023-02-19T05:57:28.417Z,52.24
2023-02-19T05:58:28.375Z,50.42
2023-02-19T05:59:28.395Z,49.40
2023-02-19T06:00:28.374Z,54.82
2023-02-19T06:01:28.368Z,56.59
2023-02-19T06:02:28.352Z,53.63
2023-02-19T06:03:28.354Z,58.95
2023-02-19T06:04:28.340Z,54.14
2023-02-19T06:05:28.318Z,57.69
2023-02-19T06:06:28.293Z,57.82
2023-02-19T06:07:28.283Z,57.82
2023-02-19T06:08:28.301Z,53.23
2023-02-19T06:09:28.273Z,51.12
2023-02-19T06:10:28.303Z,55.57
2023-02-19T06:11:28.248Z,53.12
2023-02-19T06:12:28.255Z,52.39
2023-02-19T06:13:28.217Z,55.87
2023-02-19T06:14:28.217Z,53.23
2023-02-19T06:15:28.212Z,52.59
2023-02-19T06:16:28.244Z,55.07
2023-02-19T06:17:28.192Z,50.83
2023-02-19T06:18:28.193Z,57.13
2023-02-19T06:19:28.245Z,51.81
2023-02-19T06:20:28.158Z,55.50
2023-02-19T06:21:28.148Z,55.53
2023-02-19T06:22:28.174Z,58.30
2023-02-19T06:23:28.134Z,55.68
2023-02-19T06:24:28.117Z,53.83
2023-02-19T06:25:28.130Z,53.53
2023-02-19T06:26:28.092Z,51.99
2023-02-19T06:27:28.080Z,53.29
2023-02-19T06:28:28.095Z,57.13
2023-02-19T06:29:28.065Z,51.15
2023-02-19T06:30:28.069Z,55.43
2023-02-19T06:31:28.133Z,49.61
2023-02-19T06:32:28.089Z,54.93
2023-02-19T06:33:28.014Z,55.36
2023-02-19T06:34:28.022Z,55.85
2023-02-19T06:35:28.008Z,53.93
2023-02-19T06:36:27.987Z,55.21
2023-02-19T06:37:27.977Z,54.25
2023-02-19T06:38:27.975Z,54.20
2023-02-19T06:39:27.952Z,50.65
2023-02-19T06:40:27.973Z,53.55
2023-02-19T06:41:27.939Z,56.44
2023-02-19T06:42:27.927Z,54.69
2023-02-19T06:43:27.925Z,52.81
2023-02-19T06:44:27.933Z,52.87
2023-02-19T06:45:27.896Z,51.78
2023-02-19T06:46:27.946Z,56.58
2023-02-19T06:47:27.866Z,53.10
2023-02-19T06:48:27.867Z,54.96
2023-02-19T06:49:27.859Z,52.52
2023-02-19T06:50:27.842Z,52.81
2023-02-19T06:51:27.815Z,50.65
2023-02-19T06:52:27.816Z,51.17
2023-02-19T06:53:27.816Z,56.34
2023-02-19T06:54:27.805Z,51.60
2023-02-19T06:55:27.775Z,48.99
2023-02-19T06:56:27.788Z,54.34
2023-02-19T06:57:27.781Z,56.79
2023-02-19T06:58:27.766Z,53.97
2023-02-19T06:59:27.741Z,54.54
2023-02-19T07:00:27.760Z,56.53
2023-02-19T07:01:27.720Z,53.22
2023-02-19T07:02:27.747Z,53.67
2023-02-19T07:03:27.708Z,53.82
2023-02-19T07:04:27.733Z,56.80
2023-02-19T07:05:27.673Z,54.61
2023-02-19T07:06:27.659Z,52.08
2023-02-19T07:07:27.669Z,55.11
2023-02-19T07:08:29.584Z,53.54
2023-02-19T07:09:28.638Z,53.16
2023-02-19T07:10:27.619Z,56.48
2023-02-19T07:11:27.620Z,56.58
2023-02-19T07:12:27.582Z,56.15
2023-02-19T07:13:27.614Z,54.87
2023-02-19T07:14:27.572Z,54.89
2023-02-19T07:15:27.562Z,58.91
2023-02-19T07:16:27.619Z,52.79
2023-02-19T07:17:27.556Z,55.60
2023-02-19T07:18:27.534Z,55.30
2023-02-19T07:19:27.539Z,54.22
2023-02-19T07:20:27.528Z,54.35
2023-02-19T07:21:27.503Z,57.21
2023-02-19T07:22:27.485Z,54.64
2023-02-19T07:23:27.505Z,56.65
2023-02-19T07:24:27.463Z,54.84
2023-02-19T07:25:27.477Z,54.83
2023-02-19T07:26:27.433Z,60.23
2023-02-19T07:27:27.426Z,59.28
2023-02-19T07:28:27.451Z,57.69
2023-02-19T07:29:27.422Z,58.73
2023-02-19T07:30:27.438Z,58.08
2023-02-19T07:31:27.478Z,58.63
2023-02-19T07:32:27.381Z,60.73
2023-02-19T07:33:27.385Z,58.22
2023-02-19T07:34:27.366Z,60.18
2023-02-19T07:35:27.360Z,58.91
2023-02-19T07:36:27.341Z,59.67
2023-02-19T07:37:27.327Z,60.59
2023-02-19T07:38:27.299Z,61.01
2023-02-19T07:39:27.303Z,57.87
2023-02-19T07:40:27.308Z,57.96
2023-02-19T07:41:27.316Z,60.05
2023-02-19T07:42:27.295Z,57.99
2023-02-19T07:43:27.295Z,53.81
2023-02-19T07:44:27.255Z,56.04
2023-02-19T07:45:27.282Z,57.28
2023-02-19T07:46:27.245Z,58.03
2023-02-19T07:47:27.245Z,58.90
2023-02-19T07:48:27.219Z,58.57
2023-02-19T07:49:27.216Z,59.64
2023-02-19T07:50:27.213Z,56.67
2023-02-19T07:51:27.196Z,61.49
2023-02-19T07:52:27.176Z,59.18
2023-02-19T07:53:27.170Z,55.11
2023-02-19T07:54:27.160Z,57.57
2023-02-19T07:55:27.142Z,56.62
2023-02-19T07:56:27.134Z,56.65
2023-02-19T07:57:27.143Z,51.68
2023-02-19T07:58:27.093Z,55.14
2023-02-19T07:59:27.175Z,56.84
2023-02-19T08:00:27.091Z,60.66
2023-02-19T08:01:27.163Z,59.87
2023-02-19T08:02:27.078Z,57.34
2023-02-19T08:03:27.095Z,57.84
2023-02-19T08:04:27.064Z,57.96
2023-02-19T08:05:27.034Z,58.13
2023-02-19T08:06:27.039Z,57.57
2023-02-19T08:07:27.020Z,58.35
2023-02-19T08:08:26.997Z,58.98
2023-02-19T08:09:58.896Z,56.68
2023-02-19T08:10:27.131Z,55.93
2023-02-19T08:11:27.015Z,58.00
2023-02-19T08:12:26.972Z,60.76
2023-02-19T08:13:26.955Z,58.72
2023-02-19T08:14:26.970Z,59.67
2023-02-19T08:15:26.946Z,57.65
2023-02-19T08:16:42.033Z,56.37
2023-02-19T08:17:28.990Z,56.45
2023-02-19T08:18:26.921Z,57.51
2023-02-19T08:19:26.872Z,54.86
2023-02-19T08:20:26.892Z,57.73
2023-02-19T08:21:26.955Z,57.53
2023-02-19T08:22:26.880Z,55.96
2023-02-19T08:23:26.862Z,60.47
2023-02-19T08:24:26.900Z,59.77
2023-02-19T08:25:26.860Z,61.76
2023-02-19T08:26:26.865Z,61.95
2023-02-19T08:27:26.821Z,60.97
2023-02-19T08:28:26.828Z,59.44
2023-02-19T08:29:26.790Z,59.75
2023-02-19T08:30:26.867Z,58.87
2023-02-19T08:31:26.879Z,61.68
2023-02-19T08:32:26.804Z,60.86
2023-02-19T08:33:26.789Z,59.35
2023-02-19T08:34:26.747Z,57.88
2023-02-19T08:35:26.772Z,60.04
2023-02-19T08:36:26.699Z,58.56
2023-02-19T08:37:26.722Z,62.22
2023-02-19T08:38:26.724Z,59.10
2023-02-19T08:39:26.707Z,61.95
2023-02-19T08:40:26.762Z,64.78
2023-02-19T08:41:26.652Z,61.68
2023-02-19T08:42:26.642Z,63.79
2023-02-19T08:43:26.669Z,61.14
2023-02-19T08:44:26.644Z,63.78
2023-02-19T08:45:26.707Z,64.69
2023-02-19T08:46:26.715Z,62.65
2023-02-19T08:47:26.605Z,62.60
2023-02-19T08:48:26.609Z,62.38
2023-02-19T08:49:26.589Z,62.48
2023-02-19T08:50:26.592Z,62.10
2023-02-19T08:51:26.533Z,62.23
2023-02-19T08:52:26.527Z,62.31
2023-02-19T08:53:26.550Z,59.80
2023-02-19T08:54:26.526Z,59.70
2023-02-19T08:55:26.495Z,56.59
2023-02-19T08:56:26.530Z,60.97
2023-02-19T08:57:26.482Z,60.08
2023-02-19T08:58:26.511Z,61.68
2023-02-19T08:59:26.497Z,59.52
2023-02-19T09:00:26.445Z,61.86
2023-02-19T09:01:26.474Z,62.60
2023-02-19T09:02:26.430Z,58.55
2023-02-19T09:03:26.440Z,57.48
2023-02-19T09:04:26.482Z,62.83
2023-02-19T09:05:26.413Z,66.32
2023-02-19T09:06:26.389Z,65.44
2023-02-19T09:07:26.380Z,67.46
2023-02-19T09:08:26.405Z,66.26
2023-02-19T09:09:26.385Z,65.24
2023-02-19T09:10:26.392Z,60.84
2023-02-19T09:11:26.333Z,62.44
2023-02-19T09:12:26.335Z,57.72
2023-02-19T09:13:26.343Z,58.57
2023-02-19T09:14:26.289Z,56.43
2023-02-19T09:15:26.324Z,57.49
2023-02-19T09:16:26.258Z,59.84
2023-02-19T09:17:26.274Z,57.98
2023-02-19T09:18:26.268Z,58.57
2023-02-19T09:19:26.258Z,58.05
2023-02-19T09:20:26.253Z,59.84
2023-02-19T09:21:26.197Z,58.55
2023-02-19T09:22:26.233Z,55.55
2023-02-19T09:23:26.225Z,58.37
2023-02-19T09:24:26.183Z,58.37
2023-02-19T09:25:26.189Z,62.20
2023-02-19T09:26:26.234Z,63.22
2023-02-19T09:27:26.174Z,60.66
2023-02-19T09:28:26.121Z,55.48
2023-02-19T09:29:26.181Z,59.90
2023-02-19T09:30:26.197Z,56.55
2023-02-19T09:31:26.128Z,58.06
2023-02-19T09:32:26.128Z,59.81
2023-02-19T09:33:26.144Z,55.53
2023-02-19T09:34:27.084Z,56.82
2023-02-19T09:35:26.105Z,58.74
2023-02-19T09:36:26.089Z,59.07
2023-02-19T09:37:26.037Z,60.69
2023-02-19T09:38:26.096Z,57.54
2023-02-19T09:39:26.048Z,54.12
2023-02-19T09:40:26.135Z,56.39
2023-02-19T09:41:26.009Z,56.57
2023-02-19T09:42:26.007Z,59.68
2023-02-19T09:43:26.032Z,59.42
2023-02-19T09:44:25.986Z,58.24
2023-02-19T09:45:25.985Z,54.90
2023-02-19T09:46:25.998Z,57.86
2023-02-19T09:47:25.968Z,55.23
2023-02-19T09:48:25.937Z,57.98
2023-02-19T09:49:26.127Z,55.01
2023-02-19T09:50:26.942Z,54.87
2023-02-19T09:51:25.921Z,58.96
2023-02-19T09:52:25.886Z,55.82
2023-02-19T09:53:25.923Z,55.21
2023-02-19T09:54:25.882Z,53.41
2023-02-19T09:55:25.883Z,55.43
2023-02-19T09:56:25.833Z,54.92
2023-02-19T09:57:25.859Z,55.19
2023-02-19T09:58:25.846Z,56.59
2023-02-19T09:59:25.849Z,55.37
2023-02-19T10:00:25.857Z,51.44
2023-02-19T10:01:25.835Z,55.68
2023-02-19T10:02:25.800Z,56.41
2023-02-19T10:03:25.797Z,59.82
2023-02-19T10:04:25.756Z,54.89
2023-02-19T10:05:25.744Z,56.78
2023-02-19T10:06:25.758Z,57.58
2023-02-19T10:07:25.760Z,59.84
2023-02-19T10:08:25.706Z,54.81
2023-02-19T10:09:25.746Z,55.79
2023-02-19T10:10:25.683Z,56.30
2023-02-19T10:11:25.671Z,58.44
2023-02-19T10:12:25.682Z,51.81
2023-02-19T10:13:25.731Z,55.19
2023-02-19T10:14:25.668Z,59.75
2023-02-19T10:15:25.627Z,58.35
2023-02-19T10:16:25.623Z,60.26
2023-02-19T10:17:25.640Z,57.92
2023-02-19T10:18:25.602Z,59.27
2023-02-19T10:19:25.576Z,57.09
2023-02-19T10:20:25.574Z,57.25
2023-02-19T10:21:25.586Z,57.89
2023-02-19T10:22:25.554Z,56.61
2023-02-19T10:23:25.557Z,59.90
2023-02-19T10:24:25.582Z,61.12
2023-02-19T10:25:25.517Z,60.28
2023-02-19T10:26:25.515Z,61.14
2023-02-19T10:27:25.525Z,57.78
2023-02-19T10:28:25.507Z,59.28
2023-02-19T10:29:25.467Z,60.03
2023-02-19T10:30:25.528Z,59.51
2023-02-19T10:31:25.631Z,60.18
2023-02-19T10:32:25.433Z,61.64
2023-02-19T10:33:25.450Z,60.01
2023-02-19T10:34:25.430Z,60.14
2023-02-19T10:35:25.450Z,57.29
2023-02-19T10:36:25.398Z,58.35
2023-02-19T10:37:25.409Z,58.48
2023-02-19T10:38:25.392Z,58.68
2023-02-19T10:39:25.404Z,60.62
2023-02-19T10:40:25.391Z,59.94
2023-02-19T10:41:25.397Z,60.24
2023-02-19T10:42:25.350Z,58.19
2023-02-19T10:43:25.405Z,61.16
2023-02-19T10:44:25.341Z,59.03
2023-02-19T10:45:25.339Z,61.26
2023-02-19T10:46:25.362Z,60.44
2023-02-19T10:47:25.305Z,62.01
2023-02-19T10:48:25.265Z,62.68
2023-02-19T10:49:25.277Z,60.29
2023-02-19T10:50:25.274Z,60.86
2023-02-19T10:51:25.244Z,61.51
2023-02-19T10:52:25.230Z,64.32
2023-02-19T10:53:25.244Z,62.05
2023-02-19T10:54:25.212Z,59.61
2023-02-19T10:55:25.225Z,61.34
2023-02-19T10:56:25.227Z,63.50
2023-02-19T10:57:25.144Z,60.11
2023-02-19T10:58:25.170Z,62.55
2023-02-19T10:59:25.148Z,59.85
2023-02-19T11:00:25.136Z,60.19
2023-02-19T11:01:25.162Z,60.42
2023-02-19T11:02:25.106Z,59.66
2023-02-19T11:03:25.156Z,60.81
2023-02-19T11:04:25.190Z,59.20
2023-02-19T11:05:25.086Z,62.06
2023-02-19T11:06:25.177Z,61.62
2023-02-19T11:07:25.035Z,64.24
2023-02-19T11:08:25.045Z,63.59
2023-02-19T11:09:25.049Z,59.32
2023-02-19T11:10:25.028Z,63.25
2023-02-19T11:11:25.023Z,62.74
2023-02-19T11:12:25.013Z,61.79
2023-02-19T11:13:24.990Z,62.87
2023-02-19T11:14:24.996Z,61.79
2023-02-19T11:15:25.030Z,63.89
2023-02-19T11:16:25.011Z,62.84
2023-02-19T11:17:24.915Z,59.88
2023-02-19T11:18:24.920Z,62.19
2023-02-19T11:19:24.962Z,63.06
2023-02-19T11:20:24.925Z,60.90
2023-02-19T11:21:24.886Z,62.04
2023-02-19T11:22:24.898Z,60.60
2023-02-19T11:23:24.902Z,61.49
2023-02-19T11:24:24.884Z,61.40
2023-02-19T11:25:24.852Z,61.56
2023-02-19T11:26:24.852Z,56.65
2023-02-19T11:27:24.871Z,58.75
2023-02-19T11:28:24.807Z,58.07
2023-02-19T11:29:24.817Z,56.25
2023-02-19T11:30:24.855Z,56.73
2023-02-19T11:31:24.891Z,59.67
2023-02-19T11:32:24.827Z,60.75
2023-02-19T11:33:24.816Z,59.90
2023-02-19T11:34:24.764Z,59.37
2023-02-19T11:35:24.759Z,57.38
2023-02-19T11:36:24.754Z,58.92
2023-02-19T11:37:24.740Z,61.59
2023-02-19T11:38:24.708Z,58.96
2023-02-19T11:39:24.714Z,59.15
2023-02-19T11:40:24.719Z,61.94
2023-02-19T11:41:24.660Z,59.13
2023-02-19T11:42:24.663Z,59.36
2023-02-19T11:43:24.695Z,62.42
2023-02-19T11:44:24.635Z,57.72
2023-02-19T11:45:24.668Z,59.16
2023-02-19T11:46:24.699Z,59.33
2023-02-19T11:47:24.623Z,57.55
2023-02-19T11:48:24.612Z,60.01
2023-02-19T11:49:24.617Z,58.70
2023-02-19T11:50:24.597Z,58.43
2023-02-19T11:51:24.582Z,58.79
2023-02-19T11:52:24.554Z,59.81
2023-02-19T11:53:24.571Z,60.97
2023-02-19T11:54:24.565Z,59.81
2023-02-19T11:55:24.528Z,58.32
2023-02-19T11:56:24.515Z,60.89
2023-02-19T11:57:24.525Z,57.42
2023-02-19T11:58:24.514Z,59.33
2023-02-19T11:59:24.466Z,60.75
2023-02-19T12:00:24.481Z,58.67
2023-02-19T12:01:24.435Z,56.48
2023-02-19T12:02:24.460Z,54.76
2023-02-19T12:03:24.468Z,58.31
2023-02-19T12:04:24.453Z,62.57
2023-02-19T12:05:24.472Z,58.14
2023-02-19T12:06:24.410Z,60.45
2023-02-19T12:07:24.411Z,58.64
2023-02-19T12:08:24.393Z,58.50
2023-02-19T12:09:24.374Z,57.99
2023-02-19T12:10:24.381Z,55.32
2023-02-19T12:11:24.342Z,58.82
2023-02-19T12:12:24.375Z,60.80
2023-02-19T12:13:24.347Z,59.63
2023-02-19T12:14:24.314Z,58.58
2023-02-19T12:15:24.301Z,58.07
2023-02-19T12:16:24.341Z,59.86
2023-02-19T12:17:24.271Z,57.24
2023-02-19T12:18:24.272Z,56.67
2023-02-19T12:19:24.278Z,58.56
2023-02-19T12:20:24.274Z,57.09
2023-02-19T12:21:24.242Z,58.25
2023-02-19T12:22:24.222Z,57.18
2023-02-19T12:23:24.218Z,56.10
2023-02-19T12:24:24.209Z,57.73
2023-02-19T12:25:24.181Z,57.49
2023-02-19T12:26:24.197Z,57.97
2023-02-19T12:27:24.181Z,59.54
2023-02-19T12:28:24.203Z,60.07
2023-02-19T12:29:24.131Z,56.60
2023-02-19T12:30:24.158Z,58.94
2023-02-19T12:31:24.244Z,54.86
2023-02-19T12:32:24.131Z,59.06
2023-02-19T12:33:24.124Z,57.65
2023-02-19T12:34:24.154Z,61.71
2023-02-19T12:35:24.069Z,58.44
2023-02-19T12:36:24.067Z,57.18
2023-02-19T12:37:24.069Z,56.77
2023-02-19T12:38:24.090Z,53.43
2023-02-19T12:39:24.023Z,58.90
2023-02-19T12:40:24.031Z,59.32
2023-02-19T12:41:24.004Z,56.99
2023-02-19T12:42:24.022Z,58.10
2023-02-19T12:43:23.996Z,59.38
2023-02-19T12:44:24.032Z,57.50
2023-02-19T12:45:23.950Z,60.92
2023-02-19T12:46:24.018Z,58.69
2023-02-19T12:47:23.959Z,58.19
2023-02-19T12:48:23.923Z,58.91
2023-02-19T12:49:23.952Z,60.27
2023-02-19T12:50:23.915Z,58.91
2023-02-19T12:51:23.876Z,58.31
2023-02-19T12:52:23.887Z,57.23